Time;durP1;ratioP1;P1;durP2;ratioP2;P2;SDS_P1;SDS_P2;PMS_P1;PMS_P2;Temp;Humidity;BMP_temperature;BMP_pressure;BME280_temperature;BME280_humidity;BME280_pressure;Samples;Min_cycle;Max_cycle;Signal;HPM_P1;HPM_P2
2023/03/26 00:01:53;;;;;;;26.23;3.60;;;9.10;99.90;;;;;;4986781;28;20033;-73
2023/03/26 00:04:20;;;;;;;26.60;4.07;;;9.10;99.90;;;;;;4991638;28;20030;-74
2023/03/26 00:06:47;;;;;;;33.75;3.97;;;9.10;99.90;;;;;;4997763;28;20037;-73
2023/03/26 00:09:14;;;;;;;32.05;3.90;;;9.10;99.90;;;;;;4984079;28;20023;-74
2023/03/26 00:11:41;;;;;;;31.50;4.85;;;9.10;99.90;;;;;;4982281;28;20061;-73
2023/03/26 00:14:08;;;;;;;29.52;4.25;;;9.10;99.90;;;;;;4996055;28;20042;-73
2023/03/26 00:16:34;;;;;;;36.03;4.88;;;9.10;99.90;;;;;;4995704;28;20014;-73
2023/03/26 00:19:00;;;;;;;38.70;5.22;;;9.10;99.90;;;;;;4995779;28;20109;-73
2023/03/26 00:21:29;;;;;;;31.45;5.13;;;9.10;99.90;;;;;;4994149;28;20050;-73
2023/03/26 00:24:06;;;;;;;45.00;5.57;;;9.20;99.90;;;;;;4995432;28;20394;-73
2023/03/26 00:26:33;;;;;;;38.30;5.82;;;9.20;99.90;;;;;;4995355;28;20469;-73
2023/03/26 00:28:59;;;;;;;52.38;6.15;;;9.20;99.90;;;;;;4993198;28;20034;-73
2023/03/26 00:31:25;;;;;;;42.17;6.38;;;9.20;99.90;;;;;;4995573;28;20029;-73
2023/03/26 00:33:55;;;;;;;50.20;6.50;;;9.20;99.90;;;;;;4993351;28;20026;-73
2023/03/26 00:36:24;;;;;;;52.95;7.25;;;9.20;99.90;;;;;;4994446;28;20030;-74
2023/03/26 00:38:51;;;;;;;53.15;6.82;;;9.20;99.90;;;;;;4992384;28;20030;-74
2023/03/26 00:41:24;;;;;;;66.43;8.07;;;9.20;99.90;;;;;;4985046;28;20091;-74
2023/03/26 00:43:54;;;;;;;69.35;8.30;;;9.20;99.90;;;;;;4996486;28;20481;-73
2023/03/26 00:46:21;;;;;;;58.47;7.70;;;9.20;99.90;;;;;;4994994;28;20032;-73
2023/03/26 00:48:46;;;;;;;61.53;7.68;;;9.20;99.90;;;;;;4995955;28;20046;-73
2023/03/26 00:51:14;;;;;;;70.30;9.02;;;9.20;99.90;;;;;;4994801;28;20026;-74
2023/03/26 00:53:41;;;;;;;59.53;7.97;;;9.20;99.90;;;;;;4995050;28;20026;-72
2023/03/26 00:56:08;;;;;;;61.28;7.68;;;9.20;99.90;;;;;;4994461;28;20015;-73
2023/03/26 00:58:34;;;;;;;63.22;8.02;;;9.20;99.90;;;;;;4985296;28;20037;-73
2023/03/26 01:01:02;;;;;;;64.57;9.13;;;9.20;99.90;;;;;;4978948;28;20041;-73
2023/03/26 01:03:32;;;;;;;69.50;9.07;;;9.20;99.90;;;;;;5006510;28;20038;-73
2023/03/26 01:06:06;;;;;;;67.03;8.40;;;9.20;99.90;;;;;;4993317;28;20048;-73
2023/03/26 01:08:41;;;;;;;91.67;8.97;;;9.20;99.90;;;;;;4994794;28;20026;-73
2023/03/26 01:11:15;;;;;;;72.55;8.60;;;9.20;99.90;;;;;;4994401;28;20309;-73
2023/03/26 01:13:51;;;;;;;63.63;8.70;;;9.20;99.90;;;;;;4987051;28;20100;-73
2023/03/26 01:16:25;;;;;;;70.57;7.90;;;9.20;99.90;;;;;;4988583;28;20167;-72
2023/03/26 01:18:52;;;;;;;70.00;7.85;;;9.20;99.90;;;;;;4987182;28;20698;-73
2023/03/26 01:21:22;;;;;;;69.18;8.68;;;9.10;99.90;;;;;;4991242;28;20036;-73
2023/03/26 01:23:56;;;;;;;65.97;8.23;;;9.10;99.90;;;;;;5007468;28;20109;-74
2023/03/26 01:26:56;;;;;;;59.88;8.13;;;9.10;99.90;;;;;;4984425;28;20022;-73
2023/03/26 01:29:38;;;;;;;58.15;7.50;;;9.00;99.90;;;;;;4998973;28;20023;-73
2023/03/26 01:32:15;;;;;;;56.00;7.80;;;9.00;99.90;;;;;;4974978;28;20533;-73
2023/03/26 01:35:03;;;;;;;66.22;8.68;;;8.90;99.90;;;;;;4974613;28;20465;-73
2023/03/26 01:37:47;;;;;;;58.38;7.07;;;8.90;99.90;;;;;;4991265;28;20014;-73
2023/03/26 01:40:30;;;;;;;68.75;7.82;;;8.90;99.90;;;;;;4982918;28;20027;-73
2023/03/26 01:43:08;;;;;;;69.95;8.25;;;8.80;99.90;;;;;;4993996;28;20425;-73
2023/03/26 01:45:38;;;;;;;68.68;8.43;;;8.80;99.90;;;;;;4994170;28;20042;-73
2023/03/26 01:48:06;;;;;;;65.05;7.95;;;8.80;99.90;;;;;;4993429;28;20030;-73
2023/03/26 01:50:32;;;;;;;73.60;8.93;;;8.80;99.90;;;;;;4982025;28;20110;-73
2023/03/26 01:52:58;;;;;;;62.83;8.48;;;8.70;99.90;;;;;;4993262;28;20046;-73
2023/03/26 01:55:33;;;;;;;62.65;8.88;;;8.70;99.90;;;;;;4991736;28;20543;-73
2023/03/26 01:58:22;;;;;;;62.50;8.88;;;8.70;99.90;;;;;;4990165;28;20038;-74
2023/03/26 02:01:00;;;;;;;68.53;8.52;;;8.70;99.90;;;;;;4980581;28;20344;-73
2023/03/26 02:03:32;;;;;;;66.30;8.73;;;8.70;99.90;;;;;;4993652;28;20027;-73
2023/03/26 02:06:15;;;;;;;78.10;10.68;;;8.60;99.90;;;;;;4979525;28;20422;-74
2023/03/26 02:08:51;;;;;;;73.80;9.20;;;8.60;99.90;;;;;;4980998;28;20544;-74
2023/03/26 02:11:16;;;;;;;80.65;9.85;;;8.60;99.90;;;;;;4998329;28;20505;-73
2023/03/26 02:13:44;;;;;;;75.07;10.45;;;8.60;99.90;;;;;;4993418;28;20109;-73
2023/03/26 02:16:15;;;;;;;82.15;9.68;;;8.60;99.90;;;;;;4986272;28;20023;-73
2023/03/26 02:18:42;;;;;;;72.75;9.88;;;8.60;99.90;;;;;;4974401;28;20106;-73
2023/03/26 02:21:20;;;;;;;81.00;9.60;;;8.60;99.90;;;;;;4974229;28;20775;-73
2023/03/26 02:23:49;;;;;;;81.82;10.00;;;8.60;99.90;;;;;;4986557;28;20493;-73
2023/03/26 02:26:17;;;;;;;77.47;9.27;;;8.60;99.90;;;;;;4988250;28;20019;-73
2023/03/26 02:28:43;;;;;;;77.40;9.65;;;8.60;99.90;;;;;;4991256;28;20027;-74
2023/03/26 02:31:09;;;;;;;71.00;9.57;;;8.70;99.90;;;;;;4993508;28;20030;-74
2023/03/26 02:33:36;;;;;;;86.20;11.25;;;8.70;99.90;;;;;;4994608;28;20022;-72
2023/03/26 02:36:03;;;;;;;78.05;11.55;;;8.70;99.90;;;;;;4994214;28;20538;-73
2023/03/26 02:38:33;;;;;;;85.10;11.70;;;8.70;99.90;;;;;;4984597;28;20026;-73
2023/03/26 02:41:03;;;;;;;74.32;11.20;;;8.70;99.90;;;;;;4992325;28;20394;-73
2023/03/26 02:43:28;;;;;;;72.25;12.55;;;8.80;99.90;;;;;;5005653;28;20034;-72
2023/03/26 02:45:54;;;;;;;71.82;12.48;;;8.80;99.90;;;;;;4993668;28;20019;-73
2023/03/26 02:48:20;;;;;;;76.97;12.50;;;8.80;99.90;;;;;;4988136;28;20038;-73
2023/03/26 02:50:48;;;;;;;76.95;13.32;;;8.80;99.90;;;;;;4974864;28;20397;-73
2023/03/26 02:53:15;;;;;;;68.90;13.60;;;8.90;99.90;;;;;;4991952;28;20454;-73
2023/03/26 02:55:41;;;;;;;78.50;13.10;;;8.90;99.90;;;;;;4993529;28;20524;-73
2023/03/26 02:58:06;;;;;;;82.13;13.50;;;8.90;99.90;;;;;;4992960;28;20027;-73
2023/03/26 03:00:33;;;;;;;76.10;15.07;;;8.90;99.90;;;;;;4993393;28;20339;-73
2023/03/26 03:03:03;;;;;;;75.00;13.65;;;8.90;99.90;;;;;;4980004;28;20034;-73
2023/03/26 03:05:31;;;;;;;72.05;14.15;;;8.90;99.90;;;;;;4994139;28;20085;-73
2023/03/26 03:07:58;;;;;;;68.47;14.10;;;9.00;99.90;;;;;;4993767;28;20634;-73
2023/03/26 03:10:26;;;;;;;65.32;13.25;;;9.00;99.90;;;;;;4993278;28;20102;-73
2023/03/26 03:12:52;;;;;;;73.35;13.20;;;9.00;99.90;;;;;;4983221;28;20050;-73
2023/03/26 03:15:18;;;;;;;68.63;12.80;;;9.00;99.90;;;;;;4988268;28;20041;-73
2023/03/26 03:17:44;;;;;;;66.03;10.93;;;9.00;99.90;;;;;;4994337;28;20027;-73
2023/03/26 03:20:11;;;;;;;62.80;10.52;;;9.00;99.90;;;;;;4994089;28;20030;-73
2023/03/26 03:22:36;;;;;;;67.85;11.07;;;9.00;99.90;;;;;;4991830;28;20030;-73
2023/03/26 03:25:04;;;;;;;59.08;10.05;;;9.10;99.90;;;;;;4992249;28;20019;-73
2023/03/26 03:27:30;;;;;;;65.88;10.57;;;9.10;99.90;;;;;;4991657;28;20109;-73
2023/03/26 03:29:57;;;;;;;53.85;9.43;;;9.10;99.90;;;;;;4997518;28;20130;-73
2023/03/26 03:32:24;;;;;;;55.00;8.32;;;9.10;99.90;;;;;;4997176;28;20027;-73
2023/03/26 03:34:49;;;;;;;57.38;9.43;;;9.10;99.90;;;;;;4989535;28;20019;-73
2023/03/26 03:37:16;;;;;;;55.33;8.82;;;9.10;99.90;;;;;;4991438;28;20027;-73
2023/03/26 03:39:42;;;;;;;52.15;8.25;;;9.10;99.90;;;;;;4992979;28;20091;-73
2023/03/26 03:42:08;;;;;;;59.55;9.35;;;9.10;99.90;;;;;;4979116;28;20042;-74
2023/03/26 03:44:34;;;;;;;68.43;8.75;;;9.10;99.90;;;;;;4995073;28;20030;-74
2023/03/26 03:47:00;;;;;;;55.53;8.73;;;9.10;99.90;;;;;;4990561;28;20069;-74
2023/03/26 03:49:25;;;;;;;55.88;8.57;;;9.10;99.90;;;;;;4978781;28;20023;-73
2023/03/26 03:51:51;;;;;;;52.13;7.55;;;9.10;99.90;;;;;;4996895;28;20049;-73
2023/03/26 03:54:16;;;;;;;55.28;7.60;;;9.10;99.90;;;;;;4996679;28;20458;-73
2023/03/26 03:56:44;;;;;;;47.97;7.45;;;9.10;99.90;;;;;;4980315;28;20034;-73
2023/03/26 03:59:10;;;;;;;41.05;8.23;;;9.10;99.90;;;;;;4988905;28;20030;-73
2023/03/26 04:01:36;;;;;;;38.00;6.90;;;9.00;99.90;;;;;;4983730;28;20077;-74
2023/03/26 04:04:02;;;;;;;42.90;6.93;;;9.00;99.90;;;;;;4995706;28;20026;-73
2023/03/26 04:06:29;;;;;;;41.28;6.93;;;9.00;99.90;;;;;;4996349;28;20023;-73
2023/03/26 04:08:55;;;;;;;43.45;6.55;;;9.00;99.90;;;;;;4995811;28;20022;-73
2023/03/26 04:11:21;;;;;;;53.33;7.35;;;9.00;99.90;;;;;;4996745;28;20110;-73
2023/03/26 04:13:47;;;;;;;42.78;7.55;;;9.00;99.90;;;;;;4995761;28;20420;-73
2023/03/26 04:16:13;;;;;;;48.45;7.00;;;9.00;99.90;;;;;;4996616;28;20501;-73
2023/03/26 04:18:39;;;;;;;48.13;7.90;;;9.00;99.90;;;;;;4996588;28;20034;-73
2023/03/26 04:21:06;;;;;;;45.40;7.15;;;9.00;99.90;;;;;;4995751;28;20165;-73
2023/03/26 04:23:33;;;;;;;45.42;6.32;;;9.00;99.90;;;;;;4996583;28;20029;-73
2023/03/26 04:26:03;;;;;;;35.50;7.30;;;9.00;99.90;;;;;;4996114;28;20211;-73
2023/03/26 04:28:45;;;;;;;42.72;6.68;;;9.00;99.90;;;;;;4994842;28;20694;-73
2023/03/26 04:31:14;;;;;;;48.50;7.22;;;9.00;99.90;;;;;;4985859;28;20029;-73
2023/03/26 04:33:45;;;;;;;44.15;7.45;;;9.00;99.90;;;;;;4996133;28;20050;-73
2023/03/26 04:36:12;;;;;;;39.90;6.60;;;9.00;99.90;;;;;;4995728;28;20046;-73
2023/03/26 04:38:48;;;;;;;46.13;6.95;;;9.00;99.90;;;;;;4985036;28;20022;-73
2023/03/26 04:41:14;;;;;;;40.00;7.40;;;9.00;99.90;;;;;;4993000;28;20030;-73
2023/03/26 04:43:49;;;;;;;38.50;6.32;;;9.00;99.90;;;;;;4996039;28;20027;-73
2023/03/26 04:46:22;;;;;;;41.08;6.65;;;9.00;99.90;;;;;;4997037;28;20022;-72
2023/03/26 04:48:49;;;;;;;40.97;6.07;;;9.00;99.90;;;;;;4995953;28;20045;-73
2023/03/26 04:51:16;;;;;;;43.88;7.07;;;9.00;99.90;;;;;;4994454;28;20038;-73
2023/03/26 04:53:48;;;;;;;39.95;6.70;;;9.00;99.90;;;;;;4995321;28;20054;-74
2023/03/26 04:56:48;;;;;;;45.60;7.38;;;9.00;99.90;;;;;;4994771;28;20061;-74
2023/03/26 04:59:28;;;;;;;45.20;6.88;;;9.00;99.90;;;;;;4993745;28;20018;-72
2023/03/26 05:01:56;;;;;;;37.10;7.03;;;9.00;99.90;;;;;;4995471;28;20022;-73
2023/03/26 05:04:22;;;;;;;41.05;7.47;;;9.00;99.90;;;;;;4994250;28;20027;-74
2023/03/26 05:06:48;;;;;;;36.97;6.65;;;8.90;99.90;;;;;;4992204;28;20033;-73
2023/03/26 05:09:14;;;;;;;36.17;6.82;;;9.00;99.90;;;;;;4982420;28;20118;-74
2023/03/26 05:11:40;;;;;;;46.08;7.72;;;9.00;99.90;;;;;;4994585;28;20109;-73
2023/03/26 05:14:06;;;;;;;41.60;6.78;;;8.90;99.90;;;;;;4975254;28;20023;-73
2023/03/26 05:16:33;;;;;;;42.70;7.18;;;8.90;99.90;;;;;;4975204;28;20023;-74
2023/03/26 05:18:59;;;;;;;40.25;6.40;;;8.90;99.90;;;;;;4991832;28;20034;-74
2023/03/26 05:21:24;;;;;;;39.88;7.65;;;8.90;99.90;;;;;;4994986;28;20466;-74
2023/03/26 05:23:50;;;;;;;42.17;7.45;;;8.90;99.90;;;;;;4994208;28;20046;-74
2023/03/26 05:26:16;;;;;;;51.28;7.20;;;8.90;99.90;;;;;;4994558;28;20097;-74
2023/03/26 05:28:42;;;;;;;46.92;7.45;;;8.90;99.90;;;;;;4990491;28;20022;-75
2023/03/26 05:31:09;;;;;;;38.20;6.45;;;8.90;99.90;;;;;;4974183;28;20082;-74
2023/03/26 05:33:34;;;;;;;41.92;7.75;;;8.90;99.90;;;;;;4989415;28;20395;-74
2023/03/26 05:36:01;;;;;;;47.33;8.00;;;8.90;99.90;;;;;;4994633;28;20097;-75
2023/03/26 05:38:29;;;;;;;51.40;7.55;;;8.90;99.90;;;;;;4994557;28;20022;-73
2023/03/26 05:41:03;;;;;;;44.70;7.70;;;8.90;99.90;;;;;;4994592;28;20125;-74
2023/03/26 05:43:30;;;;;;;45.53;7.72;;;8.90;99.90;;;;;;4993413;28;20128;-74
2023/03/26 05:45:56;;;;;;;44.17;7.85;;;8.90;99.90;;;;;;4994169;28;20023;-73
2023/03/26 05:48:22;;;;;;;40.55;7.97;;;8.90;99.90;;;;;;4994803;28;20500;-74
2023/03/26 05:50:53;;;;;;;38.63;7.45;;;8.90;99.90;;;;;;4981640;28;20030;-74
2023/03/26 05:53:20;;;;;;;48.72;7.57;;;8.90;99.90;;;;;;4993468;28;20153;-74
2023/03/26 05:55:56;;;;;;;47.03;7.70;;;8.90;99.90;;;;;;4993907;28;20026;-74
2023/03/26 05:58:31;;;;;;;40.08;7.57;;;8.90;99.90;;;;;;4993365;28;20018;-74
2023/03/26 06:01:08;;;;;;;43.20;7.78;;;8.90;99.90;;;;;;4981910;28;20517;-74
2023/03/26 06:03:38;;;;;;;39.25;7.63;;;8.90;99.90;;;;;;4991478;28;20042;-74
2023/03/26 06:06:17;;;;;;;42.45;8.02;;;8.90;99.90;;;;;;5003144;28;20532;-74
2023/03/26 06:08:48;;;;;;;43.75;8.05;;;8.90;99.90;;;;;;4986508;28;20076;-73
2023/03/26 06:11:15;;;;;;;41.92;7.38;;;8.90;99.90;;;;;;4993018;28;20458;-74
2023/03/26 06:13:41;;;;;;;44.70;7.18;;;8.90;99.90;;;;;;4989887;28;20034;-73
2023/03/26 06:16:08;;;;;;;41.00;7.93;;;8.90;99.90;;;;;;4989568;28;20166;-73
2023/03/26 06:18:35;;;;;;;44.08;8.10;;;8.90;99.90;;;;;;4988806;28;20031;-73
2023/03/26 06:21:01;;;;;;;40.05;8.10;;;8.90;99.90;;;;;;4993411;28;20557;-74
2023/03/26 06:23:26;;;;;;;39.38;7.78;;;8.90;99.90;;;;;;4989174;28;20494;-72
2023/03/26 06:25:52;;;;;;;42.78;8.45;;;8.90;99.90;;;;;;4989108;28;20023;-74
2023/03/26 06:28:18;;;;;;;39.42;8.30;;;8.90;99.90;;;;;;4993545;28;20144;-74
2023/03/26 06:30:43;;;;;;;45.25;9.60;;;8.90;99.90;;;;;;4979963;28;20113;-74
2023/03/26 06:33:09;;;;;;;42.08;9.68;;;8.90;99.90;;;;;;4982210;28;20031;-73
2023/03/26 06:35:35;;;;;;;46.78;9.32;;;8.90;99.90;;;;;;4990236;28;20693;-74
2023/03/26 06:38:01;;;;;;;49.47;10.40;;;8.90;99.90;;;;;;4987379;28;20110;-74
2023/03/26 06:40:27;;;;;;;44.78;9.43;;;8.90;99.90;;;;;;4976937;28;20478;-73
2023/03/26 06:42:54;;;;;;;52.42;10.68;;;8.90;99.90;;;;;;4981814;28;20595;-74
2023/03/26 06:45:20;;;;;;;51.13;10.70;;;8.90;99.90;;;;;;4987555;28;20042;-73
2023/03/26 06:47:46;;;;;;;39.67;10.48;;;8.90;99.90;;;;;;4991546;28;20023;-73
2023/03/26 06:50:12;;;;;;;44.10;10.57;;;8.90;99.90;;;;;;4993308;28;20018;-74
2023/03/26 06:52:37;;;;;;;47.03;10.95;;;8.90;99.90;;;;;;4993232;28;20066;-74
2023/03/26 06:55:05;;;;;;;45.15;9.80;;;8.90;99.90;;;;;;4992294;28;20034;-74
2023/03/26 06:57:31;;;;;;;37.75;9.95;;;8.90;99.90;;;;;;4990991;28;20109;-73
2023/03/26 06:59:56;;;;;;;42.13;11.20;;;8.90;99.90;;;;;;4987482;28;20103;-75
2023/03/26 07:02:22;;;;;;;38.63;10.60;;;8.90;99.90;;;;;;4989252;28;20061;-75
2023/03/26 07:04:48;;;;;;;49.22;11.68;;;8.90;99.90;;;;;;4993994;28;20046;-73
2023/03/26 07:07:14;;;;;;;39.00;10.32;;;8.90;99.90;;;;;;4995193;28;20496;-74
2023/03/26 07:09:39;;;;;;;40.80;10.73;;;9.00;99.90;;;;;;4993272;28;20023;-73
2023/03/26 07:12:05;;;;;;;37.90;11.10;;;9.00;99.90;;;;;;4989211;28;20508;-73
2023/03/26 07:14:31;;;;;;;44.17;10.65;;;9.00;99.90;;;;;;4996973;28;20069;-74
2023/03/26 07:16:58;;;;;;;52.95;12.00;;;9.00;99.90;;;;;;4996607;28;20081;-74
2023/03/26 07:19:24;;;;;;;41.40;10.55;;;9.00;99.90;;;;;;4992569;28;20374;-74
2023/03/26 07:21:50;;;;;;;41.80;10.13;;;9.00;99.90;;;;;;4982074;28;20084;-74
2023/03/26 07:24:16;;;;;;;45.58;10.85;;;9.00;99.90;;;;;;4996003;28;20023;-74
2023/03/26 07:27:22;;;;;;;46.65;10.63;;;9.00;99.90;;;;;;4996329;28;20034;-74
2023/03/26 07:30:14;;;;;;;37.67;8.68;;;9.00;99.90;;;;;;4986749;28;20037;-73
2023/03/26 07:32:43;;;;;;;42.45;9.65;;;9.00;99.90;;;;;;4982752;28;20042;-74
2023/03/26 07:35:13;;;;;;;38.55;9.88;;;9.00;99.90;;;;;;4980636;28;20138;-74
2023/03/26 07:37:58;;;;;;;43.67;10.13;;;9.00;99.90;;;;;;4987967;28;20512;-75
2023/03/26 07:41:00;;;;;;;35.10;9.70;;;9.00;99.90;;;;;;4996000;28;20027;-74
2023/03/26 07:43:45;;;;;;;41.80;9.98;;;9.00;99.90;;;;;;4990430;28;20375;-74
2023/03/26 07:46:12;;;;;;;37.07;9.40;;;9.00;99.90;;;;;;4986451;28;20478;-74
2023/03/26 07:48:47;;;;;;;38.25;9.38;;;9.00;99.90;;;;;;4996100;28;20076;-74
2023/03/26 07:51:13;;;;;;;35.90;9.18;;;9.00;99.90;;;;;;4995421;28;20084;-75
2023/03/26 07:53:39;;;;;;;40.00;8.68;;;9.00;99.90;;;;;;4995785;28;20034;-74
2023/03/26 07:56:16;;;;;;;41.55;8.18;;;9.00;99.90;;;;;;4993071;28;20030;-74
2023/03/26 07:59:03;;;;;;;29.50;7.75;;;9.00;99.90;;;;;;4982163;28;20015;-74
2023/03/26 08:01:56;;;;;;;38.08;8.07;;;9.10;99.90;;;;;;4979965;28;20035;-74
2023/03/26 08:04:43;;;;;;;41.92;8.30;;;9.10;99.90;;;;;;4987407;28;20089;-74
2023/03/26 08:07:30;;;;;;;32.97;8.48;;;9.10;99.90;;;;;;4996334;28;20466;-75
2023/03/26 08:09:59;;;;;;;38.97;8.48;;;9.10;99.90;;;;;;4982758;28;20026;-75
2023/03/26 08:12:52;;;;;;;30.55;8.35;;;9.10;99.90;;;;;;4991275;28;20047;-75
2023/03/26 08:15:28;;;;;;;33.78;8.73;;;9.10;99.90;;;;;;4995508;28;20124;-75
2023/03/26 08:18:15;;;;;;;29.70;7.85;;;9.10;99.90;;;;;;4994535;28;20363;-74
2023/03/26 08:20:52;;;;;;;26.85;7.20;;;9.10;99.90;;;;;;4986939;28;20031;-75
2023/03/26 08:23:37;;;;;;;27.45;6.70;;;9.10;99.90;;;;;;4992364;28;20037;-75
2023/03/26 08:26:06;;;;;;;;;;;9.10;99.90;;;;;;4984480;28;20041;-75
2023/03/26 08:28:53;;;;;;;28.67;6.90;;;9.10;99.90;;;;;;4988685;28;19906;-75
2023/03/26 08:31:27;;;;;;;29.02;6.70;;;9.10;99.90;;;;;;4996171;28;20054;-75
2023/03/26 08:33:53;;;;;;;30.40;6.93;;;9.10;99.90;;;;;;4990400;28;20042;-75
2023/03/26 08:36:18;;;;;;;34.35;6.97;;;9.10;99.90;;;;;;4996605;28;20030;-75
2023/03/26 08:38:44;;;;;;;30.83;6.40;;;9.20;99.90;;;;;;4995907;28;20031;-74
2023/03/26 08:41:10;;;;;;;32.50;7.30;;;9.20;99.90;;;;;;4995847;28;20363;-74
2023/03/26 08:44:07;;;;;;;22.73;5.80;;;9.20;99.90;;;;;;4988476;28;20034;-75
2023/03/26 08:46:49;;;;;;;28.52;6.53;;;9.20;99.90;;;;;;4989453;28;20037;-74
2023/03/26 08:49:17;;;;;;;21.15;5.38;;;9.20;99.90;;;;;;4990762;28;20050;-75
2023/03/26 08:52:23;;;;;;;19.67;5.10;;;9.10;99.90;;;;;;4989744;28;20022;-75
2023/03/26 08:55:10;;;;;;;20.73;4.80;;;9.20;99.90;;;;;;4996671;28;20050;-76
2023/03/26 08:58:03;;;;;;;19.13;4.75;;;9.20;99.90;;;;;;4980986;28;20101;-76
2023/03/26 09:00:40;;;;;;;16.25;4.40;;;9.20;99.90;;;;;;4995142;28;20027;-76
2023/03/26 09:03:17;;;;;;;20.63;4.60;;;9.20;99.90;;;;;;4985056;28;20377;-76
2023/03/26 09:06:01;;;;;;;14.48;4.70;;;9.30;99.90;;;;;;4990475;28;20038;-75
2023/03/26 09:08:42;;;;;;;20.08;5.70;;;9.30;99.90;;;;;;4977811;28;20030;-76
2023/03/26 09:11:34;;;;;;;26.77;5.82;;;9.30;99.90;;;;;;4995381;28;20041;-75
2023/03/26 09:14:11;;;;;;;20.67;5.35;;;9.40;99.90;;;;;;4990836;28;20046;-75
2023/03/26 09:16:58;;;;;;;19.27;5.60;;;9.30;99.90;;;;;;4986685;28;20011;-76
2023/03/26 09:19:44;;;;;;;23.70;5.55;;;9.40;99.90;;;;;;4991709;28;20030;-76
2023/03/26 09:22:34;;;;;;;20.63;7.30;;;9.40;99.90;;;;;;4984819;28;20030;-76
2023/03/26 09:25:22;;;;;;;24.85;8.27;;;9.40;99.90;;;;;;4992122;28;20053;-76
2023/03/26 09:28:15;;;;;;;29.98;10.50;;;9.40;99.90;;;;;;4981613;28;20035;-76
2023/03/26 09:30:59;;;;;;;52.65;15.73;;;9.40;99.90;;;;;;4993044;28;20049;-76
2023/03/26 09:33:36;;;;;;;51.08;15.82;;;9.40;99.90;;;;;;4992737;28;20492;-76
2023/03/26 09:36:39;;;;;;;39.08;14.85;;;9.40;99.90;;;;;;4976798;28;20028;-76
2023/03/26 09:39:19;;;;;;;21.90;11.02;;;9.40;99.90;;;;;;4981236;28;20105;-76
2023/03/26 09:42:16;;;;;;;28.70;11.57;;;9.20;99.90;;;;;;4990669;28;20026;-75
2023/03/26 09:45:15;;;;;;;32.22;14.38;;;9.20;99.90;;;;;;4993336;28;20031;-76
2023/03/26 09:47:57;;;;;;;30.10;15.82;;;9.20;99.90;;;;;;5110215;27;20373;-73
2023/03/26 09:50:42;;;;;;;42.42;17.80;;;9.10;99.90;;;;;;5097779;28;20032;-75
2023/03/26 09:53:22;;;;;;;43.55;18.17;;;9.00;99.90;;;;;;5108420;28;20024;-74
2023/03/26 09:56:10;;;;;;;40.50;19.60;;;8.90;99.90;;;;;;5111039;28;20051;-74
2023/03/26 09:58:51;;;;;;;40.55;18.30;;;8.90;99.90;;;;;;5112590;28;20020;-75
2023/03/26 10:01:24;;;;;;;39.70;18.45;;;8.90;99.90;;;;;;5100729;28;20024;-74
2023/03/26 10:04:05;;;;;;;40.28;18.48;;;8.90;99.90;;;;;;5113197;28;20103;-75
2023/03/26 10:06:56;;;;;;;40.95;17.67;;;8.90;99.90;;;;;;5112830;28;20087;-74
2023/03/26 10:09:43;;;;;;;39.25;17.70;;;8.90;99.90;;;;;;5109286;28;20111;-76
2023/03/26 10:12:41;;;;;;;37.95;16.65;;;9.00;99.90;;;;;;5111248;28;20246;-75
2023/03/26 10:15:34;;;;;;;32.85;15.57;;;9.00;99.90;;;;;;5113425;28;20080;-75
2023/03/26 10:18:32;;;;;;;39.40;15.80;;;9.00;99.90;;;;;;5122668;28;20484;-76
2023/03/26 10:21:06;;;;;;;36.83;14.13;;;9.10;99.90;;;;;;5122064;28;20026;-75
2023/03/26 10:23:49;;;;;;;35.08;12.93;;;9.10;99.90;;;;;;5112882;28;20500;-75
2023/03/26 10:26:41;;;;;;;27.73;12.13;;;9.10;99.90;;;;;;5127255;28;20365;-76
2023/03/26 10:29:16;;;;;;;31.05;11.25;;;9.10;99.90;;;;;;5124324;28;20024;-76
2023/03/26 10:32:02;;;;;;;28.38;11.00;;;9.10;99.90;;;;;;5112535;28;20069;-75
2023/03/26 10:34:37;;;;;;;26.55;9.90;;;9.10;99.90;;;;;;5118126;28;20020;-74
2023/03/26 10:37:07;;;;;;;20.70;8.07;;;9.10;99.90;;;;;;5123252;28;20393;-74
2023/03/26 10:39:33;;;;;;;22.17;7.25;;;9.10;99.90;;;;;;5119783;28;20027;-74
2023/03/26 10:42:20;;;;;;;16.85;6.32;;;9.20;99.90;;;;;;5133812;28;20023;-74
2023/03/26 10:44:54;;;;;;;17.55;5.03;;;9.20;99.90;;;;;;5122200;28;20393;-74
2023/03/26 10:47:41;;;;;;;21.58;5.57;;;9.20;99.90;;;;;;5130879;28;20062;-74
2023/03/26 10:50:13;;;;;;;26.73;5.68;;;9.20;99.90;;;;;;5122691;28;20016;-75
2023/03/26 10:53:01;;;;;;;28.70;5.40;;;9.20;99.90;;;;;;5123284;28;20054;-74
2023/03/26 10:55:40;;;;;;;19.85;5.35;;;9.20;99.90;;;;;;5118784;28;20027;-75
2023/03/26 10:58:09;;;;;;;18.35;4.97;;;9.30;99.90;;;;;;5107662;28;20023;-74
2023/03/26 11:00:42;;;;;;;20.67;5.03;;;9.20;99.90;;;;;;5097392;28;20066;-74
2023/03/26 11:03:42;;;;;;;32.17;5.80;;;9.20;99.90;;;;;;5083657;28;20031;-74
2023/03/26 11:06:17;;;;;;;26.25;6.00;;;9.20;99.90;;;;;;5100686;28;20036;-74
2023/03/26 11:09:12;;;;;;;27.75;5.47;;;9.10;99.90;;;;;;5117263;28;20032;-74
2023/03/26 11:11:43;;;;;;;26.20;5.05;;;9.00;99.90;;;;;;5110976;28;20038;-75
2023/03/26 11:14:33;;;;;;;26.10;5.15;;;9.00;99.90;;;;;;5105763;28;20028;-75
2023/03/26 11:17:08;;;;;;;27.13;5.15;;;8.90;99.90;;;;;;5100035;28;20059;-75
2023/03/26 11:20:03;;;;;;;27.95;5.78;;;8.90;99.90;;;;;;5106865;28;20020;-75
2023/03/26 11:22:56;;;;;;;18.25;4.72;;;8.80;99.90;;;;;;5105155;28;20047;-74
2023/03/26 11:25:50;;;;;;;26.42;5.38;;;8.80;99.90;;;;;;5106697;28;20085;-74
2023/03/26 11:28:22;;;;;;;21.02;4.78;;;8.70;99.90;;;;;;5088016;28;20040;-75
2023/03/26 11:30:50;;;;;;;20.25;4.70;;;8.70;99.90;;;;;;5084671;28;20031;-75
2023/03/26 11:33:23;;;;;;;29.83;4.97;;;8.80;99.90;;;;;;5113946;28;20431;-75
2023/03/26 11:35:57;;;;;;;25.85;5.03;;;8.80;99.90;;;;;;5112649;28;20031;-74
2023/03/26 11:38:32;;;;;;;17.77;4.18;;;8.80;99.90;;;;;;5097967;28;20031;-74
2023/03/26 11:41:00;;;;;;;26.10;4.78;;;8.80;99.90;;;;;;5103527;28;20389;-74
2023/03/26 11:43:34;;;;;;;24.65;4.78;;;8.80;99.90;;;;;;5095251;28;20023;-74
2023/03/26 11:46:03;;;;;;;24.17;4.43;;;8.80;99.90;;;;;;5105502;28;20107;-74
2023/03/26 11:48:34;;;;;;;22.13;4.32;;;8.80;99.90;;;;;;5108647;28;20534;-75
2023/03/26 11:51:09;;;;;;;25.33;4.65;;;8.80;99.90;;;;;;5108204;28;20379;-74
2023/03/26 11:53:38;;;;;;;21.85;4.68;;;8.80;99.90;;;;;;5109423;28;20039;-74
2023/03/26 11:56:27;;;;;;;34.00;4.78;;;8.80;99.90;;;;;;5107232;28;20028;-74
2023/03/26 11:59:04;;;;;;;28.70;4.43;;;8.70;99.90;;;;;;5115023;28;20026;-74
2023/03/26 12:01:49;;;;;;;24.80;4.32;;;8.70;99.90;;;;;;5115049;28;20474;-75
2023/03/26 12:04:17;;;;;;;24.30;4.05;;;8.70;99.90;;;;;;5114032;28;20037;-74
2023/03/26 12:07:23;;;;;;;22.92;4.20;;;8.70;99.90;;;;;;5102027;28;20032;-74
2023/03/26 12:09:54;;;;;;;23.63;4.22;;;8.70;99.90;;;;;;5099098;28;20043;-74
2023/03/26 12:12:24;;;;;;;23.13;4.32;;;8.70;99.90;;;;;;5115130;28;20038;-74
2023/03/26 12:14:50;;;;;;;28.50;4.15;;;8.80;99.90;;;;;;5099377;28;20118;-74
2023/03/26 12:17:30;;;;;;;22.45;4.78;;;8.80;99.90;;;;;;5101684;28;20023;-75
2023/03/26 12:19:55;;;;;;;22.33;4.07;;;8.90;99.90;;;;;;5080206;28;20020;-74
2023/03/26 12:22:36;;;;;;;24.45;3.72;;;9.00;99.90;;;;;;5108415;28;20362;-74
2023/03/26 12:25:18;;;;;;;27.88;4.65;;;9.00;99.90;;;;;;5113516;28;20024;-74
2023/03/26 12:27:46;;;;;;;22.35;4.53;;;9.00;99.90;;;;;;5100383;28;20035;-74
2023/03/26 12:30:19;;;;;;;23.63;4.10;;;9.10;99.90;;;;;;5091996;28;20111;-74
2023/03/26 12:32:46;;;;;;;26.67;4.28;;;9.10;99.90;;;;;;5096270;28;20501;-75
2023/03/26 12:35:33;;;;;;;22.58;4.00;;;9.10;99.90;;;;;;5106210;28;20497;-75
2023/03/26 12:38:22;;;;;;;19.00;4.03;;;9.20;99.90;;;;;;5104163;28;20098;-74
2023/03/26 12:41:03;;;;;;;24.73;4.40;;;9.20;99.90;;;;;;5114044;28;20057;-74
2023/03/26 12:43:37;;;;;;;23.98;4.40;;;9.30;99.90;;;;;;5100189;28;20027;-74
2023/03/26 12:46:18;;;;;;;23.42;4.32;;;9.30;99.90;;;;;;5095639;28;20632;-74
2023/03/26 12:48:43;;;;;;;19.08;3.90;;;9.30;99.90;;;;;;5114395;28;20416;-74
2023/03/26 12:51:46;;;;;;;26.38;4.50;;;9.30;99.90;;;;;;5106737;27;20027;-74
2023/03/26 12:54:37;;;;;;;24.85;3.83;;;9.30;99.90;;;;;;5107053;28;20076;-74
2023/03/26 12:57:29;;;;;;;18.83;2.95;;;9.30;99.90;;;;;;5099292;28;20012;-74
2023/03/26 13:00:00;;;;;;;17.48;3.30;;;9.30;99.90;;;;;;5098219;28;20035;-74
2023/03/26 13:02:47;;;;;;;21.45;3.40;;;9.30;99.90;;;;;;5097291;28;20043;-74
2023/03/26 13:05:30;;;;;;;21.83;3.80;;;9.30;99.90;;;;;;5109651;28;20042;-74
2023/03/26 13:08:24;;;;;;;22.50;3.78;;;9.30;99.90;;;;;;5113661;28;20754;-74
2023/03/26 13:10:57;;;;;;;16.63;2.80;;;9.30;99.90;;;;;;5105642;28;20028;-74
2023/03/26 13:13:31;;;;;;;19.90;3.00;;;9.30;99.90;;;;;;5092345;28;20032;-74
2023/03/26 13:16:06;;;;;;;20.23;2.90;;;9.40;99.90;;;;;;5081526;28;20370;-74
2023/03/26 13:18:55;;;;;;;15.18;3.05;;;9.40;99.90;;;;;;5111850;28;20110;-73
2023/03/26 13:21:27;;;;;;;16.23;3.50;;;9.50;99.90;;;;;;5105621;28;20073;-75